Time;durP1;ratioP1;P1;durP2;ratioP2;P2;SDS_P1;SDS_P2;PMS_P1;PMS_P2;Temp;Humidity;BMP_temperature;BMP_pressure;BME280_temperature;BME280_humidity;BME280_pressure;Samples;Min_cycle;Max_cycle;Signal;HPM_P1;HPM_P2
2024/02/28 00:02:02;;;;;;;11.70;4.40;;;;;;;;;;5096763;28;20031;-68
2024/02/28 00:04:28;;;;;;;15.13;5.40;;;;;;;;;;5093827;28;20043;-66
2024/02/28 00:06:54;;;;;;;10.63;3.85;;;;;;;;;;5097363;28;20027;-68
2024/02/28 00:09:20;;;;;;;14.38;5.18;;;;;;;;;;5079754;28;20046;-68
2024/02/28 00:11:46;;;;;;;8.57;4.00;;;;;;;;;;5101302;27;20433;-67
2024/02/28 00:14:13;;;;;;;15.45;3.85;;;;;;;;;;5082743;28;20019;-67
2024/02/28 00:16:42;;;;;;;11.25;3.33;;;;;;;;;;5098612;28;20120;-67
2024/02/28 00:19:09;;;;;;;12.43;3.97;;;;;;;;;;5082982;28;20039;-67
2024/02/28 00:21:35;;;;;;;23.50;4.93;;;;;;;;;;5092085;28;20111;-68
2024/02/28 00:24:01;;;;;;;8.00;3.08;;;;;;;;;;5096616;28;20489;-67
2024/02/28 00:26:27;;;;;;;17.40;4.30;;;;;;;;;;5085035;28;20031;-67
2024/02/28 00:28:53;;;;;;;7.68;3.60;;;;;;;;;;5099538;28;20089;-67
2024/02/28 00:31:21;;;;;;;16.05;3.97;;;;;;;;;;5080431;28;20024;-68
2024/02/28 00:33:47;;;;;;;23.52;4.55;;;;;;;;;;5085253;28;20075;-67
2024/02/28 00:36:15;;;;;;;12.73;3.40;;;;;;;;;;5101893;28;20523;-67
2024/02/28 00:38:41;;;;;;;11.05;3.97;;;;;;;;;;5099601;28;20022;-68
2024/02/28 00:41:07;;;;;;;7.45;3.67;;;;;;;;;;5096118;28;20077;-67
2024/02/28 00:43:33;;;;;;;10.65;4.38;;;;;;;;;;5090783;28;20020;-68
2024/02/28 00:45:59;;;;;;;6.53;3.33;;;;;;;;;;5095781;28;20039;-67
2024/02/28 00:48:26;;;;;;;11.68;4.13;;;;;;;;;;5095331;28;20084;-67
2024/02/28 00:50:52;;;;;;;9.07;3.33;;;;;;;;;;5093495;28;20024;-67
2024/02/28 00:53:19;;;;;;;15.65;3.58;;;;;;;;;;5089005;28;20085;-67
2024/02/28 00:55:45;;;;;;;12.45;3.60;;;;;;;;;;5098069;28;20028;-67
2024/02/28 00:58:11;;;;;;;14.00;3.97;;;;;;;;;;5095402;28;20035;-67
2024/02/28 01:00:37;;;;;;;15.80;4.05;;;;;;;;;;5093951;28;20050;-70
2024/02/28 01:03:04;;;;;;;16.00;3.50;;;;;;;;;;5095884;28;20047;-67
2024/02/28 01:05:30;;;;;;;7.60;2.80;;;;;;;;;;5099342;28;20521;-67
2024/02/28 01:07:56;;;;;;;9.63;3.75;;;;;;;;;;5103401;28;20036;-68
2024/02/28 01:10:23;;;;;;;20.50;3.97;;;;;;;;;;5096326;28;20510;-68
2024/02/28 01:12:49;;;;;;;13.98;3.83;;;;;;;;;;5100274;27;20950;-67
2024/02/28 01:15:15;;;;;;;17.65;3.20;;;;;;;;;;5089577;28;20024;-74
2024/02/28 01:17:41;;;;;;;12.25;3.08;;;;;;;;;;5094607;28;20579;-67
2024/02/28 01:20:08;;;;;;;18.92;3.33;;;;;;;;;;5097444;28;20036;-67
2024/02/28 01:22:35;;;;;;;23.45;4.25;;;;;;;;;;5092662;28;20031;-67
2024/02/28 01:25:02;;;;;;;10.45;3.28;;;;;;;;;;5099736;28;20036;-67
2024/02/28 01:27:28;;;;;;;24.67;3.72;;;;;;;;;;5086512;28;20023;-67
2024/02/28 01:29:55;;;;;;;7.03;2.75;;;;;;;;;;5097872;28;20031;-67
2024/02/28 01:32:21;;;;;;;8.85;3.05;;;;;;;;;;5097392;28;20488;-67
2024/02/28 01:34:47;;;;;;;8.77;2.83;;;;;;;;;;5089074;28;20485;-67
2024/02/28 01:37:13;;;;;;;10.70;3.72;;;;;;;;;;5089858;28;20445;-67
2024/02/28 01:39:39;;;;;;;11.13;3.08;;;;;;;;;;5091851;28;20571;-67
2024/02/28 01:42:05;;;;;;;4.03;2.60;;;;;;;;;;5086147;28;20035;-67
2024/02/28 01:44:34;;;;;;;7.63;3.83;;;;;;;;;;5099853;28;20031;-67
2024/02/28 01:47:00;;;;;;;6.55;3.42;;;;;;;;;;5101456;28;20078;-67
2024/02/28 01:49:26;;;;;;;6.38;3.40;;;;;;;;;;5076184;28;20611;-67
2024/02/28 01:51:53;;;;;;;12.52;3.20;;;;;;;;;;5076896;28;20055;-67
2024/02/28 01:54:21;;;;;;;9.10;3.47;;;;;;;;;;5093220;28;20039;-67
2024/02/28 01:56:47;;;;;;;12.07;2.92;;;;;;;;;;5090900;28;20051;-67
2024/02/28 01:59:13;;;;;;;5.93;2.90;;;;;;;;;;5081482;28;20549;-67
2024/02/28 02:01:40;;;;;;;5.15;2.88;;;;;;;;;;5096895;28;20089;-68
2024/02/28 02:04:06;;;;;;;15.20;3.40;;;;;;;;;;5089876;28;20094;-67
2024/02/28 02:06:33;;;;;;;6.75;2.65;;;;;;;;;;5093512;28;20067;-67
2024/02/28 02:08:59;;;;;;;7.97;2.97;;;;;;;;;;5073057;28;20090;-67
2024/02/28 02:11:25;;;;;;;6.80;2.80;;;;;;;;;;5089250;28;20032;-67
2024/02/28 02:13:52;;;;;;;15.13;3.10;;;;;;;;;;5097501;28;20077;-67
2024/02/28 02:16:21;;;;;;;5.85;2.58;;;;;;;;;;5090978;28;20044;-67
2024/02/28 02:18:48;;;;;;;16.83;3.17;;;;;;;;;;5098097;28;20512;-67
2024/02/28 02:21:18;;;;;;;14.18;3.95;;;;;;;;;;5083517;28;20055;-67
2024/02/28 02:23:44;;;;;;;10.90;3.13;;;;;;;;;;5098926;28;20024;-68
2024/02/28 02:26:10;;;;;;;13.50;3.95;;;;;;;;;;5098234;28;20114;-67
2024/02/28 02:28:36;;;;;;;8.45;3.00;;;;;;;;;;5095403;28;20035;-68
2024/02/28 02:31:02;;;;;;;25.02;4.00;;;;;;;;;;5094927;28;20028;-68
2024/02/28 02:33:28;;;;;;;24.38;3.17;;;;;;;;;;5088210;28;20051;-67
2024/02/28 02:35:55;;;;;;;6.65;3.45;;;;;;;;;;5090822;28;20047;-67
2024/02/28 02:38:21;;;;;;;15.20;3.55;;;;;;;;;;5096140;28;20085;-67
2024/02/28 02:40:51;;;;;;;9.35;2.70;;;;;;;;;;5087615;28;20032;-67
2024/02/28 02:43:17;;;;;;;11.00;2.78;;;;;;;;;;5068096;28;20028;-67
2024/02/28 02:45:43;;;;;;;10.07;2.88;;;;;;;;;;5093295;28;20024;-67
2024/02/28 02:48:10;;;;;;;12.73;3.15;;;;;;;;;;5083120;28;20552;-67
2024/02/28 02:50:36;;;;;;;4.68;2.92;;;;;;;;;;5092626;28;20550;-67
2024/02/28 02:53:03;;;;;;;6.68;3.58;;;;;;;;;;5085746;28;20020;-67
2024/02/28 02:55:29;;;;;;;9.77;2.70;;;;;;;;;;5096559;27;20017;-67
2024/02/28 02:57:55;;;;;;;6.90;2.45;;;;;;;;;;5091906;28;20030;-67
2024/02/28 03:00:22;;;;;;;4.85;3.63;;;;;;;;;;5101870;28;20396;-68
2024/02/28 03:02:48;;;;;;;10.48;4.03;;;;;;;;;;5076710;28;20038;-67
2024/02/28 03:05:14;;;;;;;5.25;3.75;;;;;;;;;;5075049;28;20024;-67
2024/02/28 03:07:43;;;;;;;4.25;2.50;;;;;;;;;;5095487;28;20536;-69
2024/02/28 03:10:10;;;;;;;17.67;3.67;;;;;;;;;;5088269;28;20092;-67
2024/02/28 03:12:36;;;;;;;16.15;2.72;;;;;;;;;;5079051;28;20023;-67
2024/02/28 03:15:03;;;;;;;11.88;2.90;;;;;;;;;;5097109;28;20111;-67
2024/02/28 03:17:29;;;;;;;7.82;2.28;;;;;;;;;;5091830;28;20031;-67
2024/02/28 03:19:56;;;;;;;5.80;2.80;;;;;;;;;;5094240;28;20019;-67
2024/02/28 03:22:22;;;;;;;8.00;3.42;;;;;;;;;;5097754;28;20476;-68
2024/02/28 03:24:48;;;;;;;5.35;2.72;;;;;;;;;;5080204;28;20384;-67
2024/02/28 03:27:15;;;;;;;15.75;3.17;;;;;;;;;;5098694;28;20020;-68
2024/02/28 03:29:41;;;;;;;5.28;2.83;;;;;;;;;;5096680;28;20028;-68
2024/02/28 03:32:07;;;;;;;14.35;3.30;;;;;;;;;;5098193;28;20101;-67
2024/02/28 03:34:33;;;;;;;7.15;2.47;;;;;;;;;;5099092;28;20385;-67
2024/02/28 03:36:59;;;;;;;8.80;3.15;;;;;;;;;;5101125;28;20036;-67
2024/02/28 03:39:26;;;;;;;8.38;3.17;;;;;;;;;;5106152;28;20035;-67
2024/02/28 03:41:52;;;;;;;7.70;2.65;;;;;;;;;;5101125;28;20027;-67
2024/02/28 03:44:18;;;;;;;8.45;2.60;;;;;;;;;;5099710;28;20455;-67
2024/02/28 03:46:44;;;;;;;8.20;2.80;;;;;;;;;;5100410;28;20030;-67
2024/02/28 03:49:10;;;;;;;15.27;2.92;;;;;;;;;;5099599;28;20027;-67
2024/02/28 03:51:40;;;;;;;11.90;3.00;;;;;;;;;;5096056;28;20449;-67
2024/02/28 03:54:06;;;;;;;24.80;3.72;;;;;;;;;;5094428;28;20046;-67
2024/02/28 03:56:33;;;;;;;11.82;3.65;;;;;;;;;;5102566;28;20030;-67
2024/02/28 03:58:59;;;;;;;5.88;2.97;;;;;;;;;;5100482;28;20038;-67
2024/02/28 04:01:25;;;;;;;8.95;3.08;;;;;;;;;;5091411;28;20027;-67
2024/02/28 04:03:51;;;;;;;10.45;2.75;;;;;;;;;;5095068;28;20058;-67
2024/02/28 04:06:17;;;;;;;13.05;2.92;;;;;;;;;;5092474;28;20424;-67
2024/02/28 04:08:43;;;;;;;16.10;3.00;;;;;;;;;;5100508;28;20020;-67
2024/02/28 04:11:10;;;;;;;17.40;3.10;;;;;;;;;;5098087;28;20036;-68
2024/02/28 04:13:36;;;;;;;10.75;3.30;;;;;;;;;;5102385;28;20024;-67
2024/02/28 04:16:06;;;;;;;8.30;2.85;;;;;;;;;;5098942;28;20424;-67
2024/02/28 04:18:32;;;;;;;12.20;4.28;;;;;;;;;;5079416;28;20453;-67
2024/02/28 04:20:59;;;;;;;9.15;3.00;;;;;;;;;;5099462;28;20527;-67
2024/02/28 04:23:25;;;;;;;10.35;3.10;;;;;;;;;;5095285;28;20051;-67
2024/02/28 04:25:51;;;;;;;10.20;2.25;;;;;;;;;;5103550;28;20403;-67
2024/02/28 04:28:18;;;;;;;7.50;2.60;;;;;;;;;;5086474;28;20047;-67
2024/02/28 04:30:44;;;;;;;12.93;3.97;;;;;;;;;;5098885;28;20024;-67
2024/02/28 04:33:10;;;;;;;4.75;2.47;;;;;;;;;;5090264;28;20039;-67
2024/02/28 04:35:36;;;;;;;9.35;2.97;;;;;;;;;;5081586;28;20023;-67
2024/02/28 04:38:03;;;;;;;12.00;2.80;;;;;;;;;;5103022;28;20069;-67
2024/02/28 04:40:29;;;;;;;8.50;3.17;;;;;;;;;;5097306;28;20023;-67
2024/02/28 04:42:55;;;;;;;2.78;2.10;;;;;;;;;;5090477;28;20028;-66
2024/02/28 04:45:21;;;;;;;10.15;3.67;;;;;;;;;;5103928;28;20604;-67
2024/02/28 04:47:47;;;;;;;7.50;2.85;;;;;;;;;;5093590;28;20039;-67
2024/02/28 04:50:13;;;;;;;12.15;4.10;;;;;;;;;;5088623;28;20035;-67
2024/02/28 04:52:39;;;;;;;5.32;2.60;;;;;;;;;;5087841;28;20316;-67
2024/02/28 04:55:06;;;;;;;16.30;3.15;;;;;;;;;;5089075;28;20031;-67
2024/02/28 04:57:32;;;;;;;9.95;2.83;;;;;;;;;;5091600;28;20079;-67
2024/02/28 04:59:58;;;;;;;6.75;2.25;;;;;;;;;;5090255;28;20066;-68
2024/02/28 05:02:25;;;;;;;13.00;3.42;;;;;;;;;;5096469;28;20032;-68
2024/02/28 05:04:52;;;;;;;7.07;3.10;;;;;;;;;;5091072;28;20042;-68
2024/02/28 05:07:18;;;;;;;17.75;3.58;;;;;;;;;;5072211;28;20032;-67
2024/02/28 05:09:44;;;;;;;15.88;3.10;;;;;;;;;;5078191;28;20050;-67
2024/02/28 05:12:11;;;;;;;12.70;3.35;;;;;;;;;;5099184;28;20115;-66
2024/02/28 05:14:38;;;;;;;5.38;2.65;;;;;;;;;;5088924;28;20080;-66
2024/02/28 05:17:04;;;;;;;8.00;2.97;;;;;;;;;;5095463;28;20066;-67
2024/02/28 05:19:31;;;;;;;23.13;3.90;;;;;;;;;;5099886;28;20122;-67
2024/02/28 05:21:57;;;;;;;15.50;4.00;;;;;;;;;;5071281;28;20436;-67
2024/02/28 05:24:23;;;;;;;10.40;2.60;;;;;;;;;;5095124;28;20040;-67
2024/02/28 05:26:49;;;;;;;6.60;2.22;;;;;;;;;;5093540;28;20438;-68
2024/02/28 05:29:15;;;;;;;13.85;3.00;;;;;;;;;;5095733;28;20535;-67
2024/02/28 05:31:41;;;;;;;9.55;3.00;;;;;;;;;;5081015;28;20272;-67
2024/02/28 05:34:07;;;;;;;23.15;2.95;;;;;;;;;;5096432;28;20393;-67
2024/02/28 05:36:34;;;;;;;8.65;3.22;;;;;;;;;;5090251;28;20050;-67
2024/02/28 05:39:01;;;;;;;3.70;1.98;;;;;;;;;;5089424;28;20085;-67
2024/02/28 05:41:28;;;;;;;7.63;2.47;;;;;;;;;;5095132;28;20373;-67
2024/02/28 05:43:54;;;;;;;6.28;2.50;;;;;;;;;;5088282;28;20034;-67
2024/02/28 05:46:22;;;;;;;3.75;1.95;;;;;;;;;;5089946;28;20829;-67
2024/02/28 05:48:48;;;;;;;8.32;2.80;;;;;;;;;;5103427;28;20020;-67
2024/02/28 05:51:14;;;;;;;16.23;2.95;;;;;;;;;;5097161;28;20042;-67
2024/02/28 05:53:42;;;;;;;3.88;2.50;;;;;;;;;;5102404;28;20488;-66
2024/02/28 05:56:16;;;;;;;13.05;3.72;;;;;;;;;;5070711;28;20016;-67
2024/02/28 05:58:43;;;;;;;11.02;3.22;;;;;;;;;;5086712;28;20027;-67
2024/02/28 06:01:10;;;;;;;9.05;3.53;;;;;;;;;;5073212;28;20034;-67
2024/02/28 06:03:36;;;;;;;5.95;2.25;;;;;;;;;;5087094;28;20024;-67
2024/02/28 06:06:05;;;;;;;11.85;3.30;;;;;;;;;;5085755;28;20085;-67
2024/02/28 06:08:34;;;;;;;7.63;3.00;;;;;;;;;;5086693;28;20649;-69
2024/02/28 06:11:01;;;;;;;12.85;3.90;;;;;;;;;;5094687;28;20074;-68
2024/02/28 06:13:31;;;;;;;8.32;3.40;;;;;;;;;;5083081;28;20222;-69
2024/02/28 06:15:57;;;;;;;6.80;2.70;;;;;;;;;;5091234;28;20539;-70
2024/02/28 06:18:33;;;;;;;16.75;2.55;;;;;;;;;;5093844;28;20020;-69
2024/02/28 06:21:00;;;;;;;11.60;3.45;;;;;;;;;;5103921;28;20517;-69
2024/02/28 06:23:26;;;;;;;6.53;2.72;;;;;;;;;;5082478;28;20065;-69
2024/02/28 06:25:54;;;;;;;3.78;2.45;;;;;;;;;;5098385;28;20035;-69
2024/02/28 06:28:21;;;;;;;22.77;3.90;;;;;;;;;;5095194;28;20023;-70
2024/02/28 06:30:47;;;;;;;11.73;3.75;;;;;;;;;;5091919;28;20042;-69
2024/02/28 06:33:16;;;;;;;11.60;4.53;;;;;;;;;;5080275;28;20836;-69
2024/02/28 06:35:42;;;;;;;15.65;2.33;;;;;;;;;;5098202;28;20076;-68
2024/02/28 06:38:08;;;;;;;10.85;2.80;;;;;;;;;;5093419;28;20120;-68
2024/02/28 06:40:35;;;;;;;14.75;3.67;;;;;;;;;;5094894;28;20031;-69
2024/02/28 06:43:01;;;;;;;10.68;2.55;;;;;;;;;;5076969;28;20123;-69
2024/02/28 06:45:27;;;;;;;12.50;2.85;;;;;;;;;;5080118;28;20577;-68
2024/02/28 06:47:54;;;;;;;11.30;2.58;;;;;;;;;;5093829;27;20075;-68
2024/02/28 06:50:20;;;;;;;12.00;3.00;;;;;;;;;;5097739;28;20055;-68
2024/02/28 06:52:46;;;;;;;9.13;2.70;;;;;;;;;;5097808;28;20473;-68
2024/02/28 06:55:14;;;;;;;14.90;2.97;;;;;;;;;;5095199;28;20034;-68
2024/02/28 06:57:43;;;;;;;7.63;2.78;;;;;;;;;;5092278;28;20100;-68
2024/02/28 07:00:18;;;;;;;12.02;3.45;;;;;;;;;;5102560;28;20031;-68
2024/02/28 07:02:44;;;;;;;8.10;2.45;;;;;;;;;;5096270;28;20582;-68
2024/02/28 07:05:11;;;;;;;8.02;3.10;;;;;;;;;;5094571;28;20035;-68
2024/02/28 07:07:37;;;;;;;8.30;2.40;;;;;;;;;;5101567;27;20268;-68
2024/02/28 07:10:04;;;;;;;10.60;2.58;;;;;;;;;;5094739;28;20395;-68
2024/02/28 07:12:30;;;;;;;8.57;2.00;;;;;;;;;;5095279;28;20028;-69
2024/02/28 07:14:56;;;;;;;3.00;1.80;;;;;;;;;;5102277;28;20035;-68
2024/02/28 07:17:23;;;;;;;3.30;2.00;;;;;;;;;;5092801;28;20036;-68
2024/02/28 07:19:49;;;;;;;2.67;1.38;;;;;;;;;;5093292;28;20028;-68
2024/02/28 07:22:15;;;;;;;1.50;1.40;;;;;;;;;;5093955;28;20028;-68
2024/02/28 07:24:41;;;;;;;3.83;1.55;;;;;;;;;;5080143;28;20120;-68
2024/02/28 07:27:07;;;;;;;2.63;1.80;;;;;;;;;;5093853;28;20031;-68
2024/02/28 07:29:34;;;;;;;1.73;1.30;;;;;;;;;;5081331;28;20067;-68
2024/02/28 07:32:02;;;;;;;6.10;1.40;;;;;;;;;;5092520;28;20477;-68
2024/02/28 07:34:28;;;;;;;3.67;1.52;;;;;;;;;;5080812;28;20044;-68
2024/02/28 07:36:54;;;;;;;1.52;1.40;;;;;;;;;;5088748;28;20282;-67
2024/02/28 07:39:20;;;;;;;1.85;1.75;;;;;;;;;;5092828;28;20094;-69
2024/02/28 07:41:47;;;;;;;1.40;1.40;;;;;;;;;;5076044;28;20028;-68
2024/02/28 07:44:13;;;;;;;4.07;1.70;;;;;;;;;;5097577;28;20524;-68
2024/02/28 07:46:41;;;;;;;1.60;1.30;;;;;;;;;;5091988;28;20497;-68
2024/02/28 07:49:07;;;;;;;2.90;1.60;;;;;;;;;;5087472;28;20051;-68
2024/02/28 07:51:33;;;;;;;1.38;1.38;;;;;;;;;;5100672;28;20015;-68
2024/02/28 07:54:00;;;;;;;3.90;1.48;;;;;;;;;;5077137;28;20109;-68
2024/02/28 07:56:26;;;;;;;1.60;1.50;;;;;;;;;;5101475;28;20015;-68
2024/02/28 07:58:52;;;;;;;5.75;1.67;;;;;;;;;;5079164;28;20024;-68
2024/02/28 08:01:18;;;;;;;1.95;1.27;;;;;;;;;;5092038;28;20059;-68
2024/02/28 08:03:45;;;;;;;4.25;2.35;;;;;;;;;;5095033;28;20028;-68
2024/02/28 08:06:16;;;;;;;2.17;1.85;;;;;;;;;;5099121;28;20031;-68
2024/02/28 08:08:46;;;;;;;1.60;1.40;;;;;;;;;;5083898;28;20587;-68
2024/02/28 08:11:13;;;;;;;1.20;1.20;;;;;;;;;;5076444;28;20546;-68
2024/02/28 08:13:39;;;;;;;1.90;1.30;;;;;;;;;;5102140;27;20028;-68
2024/02/28 08:16:08;;;;;;;1.05;1.05;;;;;;;;;;5102859;27;20469;-68
2024/02/28 08:18:35;;;;;;;1.20;1.20;;;;;;;;;;5099541;27;20111;-68
2024/02/28 08:21:02;;;;;;;1.00;1.00;;;;;;;;;;5092554;28;20580;-68
2024/02/28 08:23:28;;;;;;;3.25;1.45;;;;;;;;;;5100038;27;20028;-68
2024/02/28 08:25:55;;;;;;;1.25;1.15;;;;;;;;;;5105139;28;20102;-68
2024/02/28 08:28:21;;;;;;;5.00;2.53;;;;;;;;;;5101783;27;20042;-68
2024/02/28 08:30:47;;;;;;;1.67;1.58;;;;;;;;;;5092515;28;20024;-68
2024/02/28 08:33:13;;;;;;;1.25;1.25;;;;;;;;;;5092942;28;20070;-67
2024/02/28 08:35:39;;;;;;;1.65;1.50;;;;;;;;;;5105530;28;20119;-67
2024/02/28 08:38:08;;;;;;;1.33;1.33;;;;;;;;;;5107321;28;20020;-67
2024/02/28 08:40:35;;;;;;;1.20;1.17;;;;;;;;;;5096174;28;20027;-68
2024/02/28 08:43:01;;;;;;;1.35;1.30;;;;;;;;;;5104267;28;20442;-67
2024/02/28 08:45:27;;;;;;;1.38;1.27;;;;;;;;;;5088397;28;20031;-68
2024/02/28 08:47:53;;;;;;;1.17;1.17;;;;;;;;;;5102037;27;20488;-68
2024/02/28 08:50:19;;;;;;;1.65;1.58;;;;;;;;;;5101105;27;20027;-68
2024/02/28 08:52:45;;;;;;;1.20;1.20;;;;;;;;;;5100040;28;20030;-71
2024/02/28 08:55:12;;;;;;;1.13;1.13;;;;;;;;;;5097917;28;20023;-69
2024/02/28 08:57:38;;;;;;;1.02;1.02;;;;;;;;;;5096773;28;20311;-69
2024/02/28 09:00:04;;;;;;;1.67;1.20;;;;;;;;;;5098471;27;20122;-68
2024/02/28 09:02:30;;;;;;;2.17;1.27;;;;;;;;;;5093309;28;20389;-69
2024/02/28 09:04:56;;;;;;;1.30;1.20;;;;;;;;;;5089772;28;20035;-68
2024/02/28 09:07:22;;;;;;;2.30;1.23;;;;;;;;;;5088389;28;20040;-69
2024/02/28 09:09:49;;;;;;;1.23;1.23;;;;;;;;;;5080167;28;20477;-68
2024/02/28 09:12:15;;;;;;;1.40;1.30;;;;;;;;;;5096970;28;20613;-68
2024/02/28 09:14:41;;;;;;;1.30;1.30;;;;;;;;;;5101885;27;20019;-69
2024/02/28 09:17:07;;;;;;;1.15;1.15;;;;;;;;;;5097202;28;20059;-68
2024/02/28 09:19:34;;;;;;;1.30;1.30;;;;;;;;;;5089721;28;20419;-68
2024/02/28 09:22:00;;;;;;;1.40;1.35;;;;;;;;;;5089495;28;20173;-68
2024/02/28 09:24:27;;;;;;;1.70;1.52;;;;;;;;;;5098277;28;20141;-67
2024/02/28 09:26:53;;;;;;;1.40;1.30;;;;;;;;;;5100733;28;20039;-68
2024/02/28 09:29:19;;;;;;;1.42;1.40;;;;;;;;;;5094140;28;20062;-68
2024/02/28 09:31:46;;;;;;;1.30;1.30;;;;;;;;;;5098208;28;20028;-68
2024/02/28 09:34:12;;;;;;;1.38;1.38;;;;;;;;;;5100681;28;20020;-68
2024/02/28 09:36:45;;;;;;;2.05;1.58;;;;;;;;;;5102861;27;20059;-68
2024/02/28 09:39:16;;;;;;;1.88;1.77;;;;;;;;;;5093923;28;20047;-68
2024/02/28 09:41:43;;;;;;;1.40;1.40;;;;;;;;;;5081576;28;20024;-68
2024/02/28 09:44:09;;;;;;;1.55;1.40;;;;;;;;;;5099020;27;20035;-68
2024/02/28 09:46:35;;;;;;;1.38;1.30;;;;;;;;;;5098864;27;20024;-68
2024/02/28 09:49:05;;;;;;;1.60;1.52;;;;;;;;;;5094763;28;20027;-68
2024/02/28 09:51:37;;;;;;;1.30;1.30;;;;;;;;;;5097274;27;20024;-68
2024/02/28 09:54:04;;;;;;;1.60;1.50;;;;;;;;;;5105118;28;20027;-68
2024/02/28 09:56:31;;;;;;;1.95;1.85;;;;;;;;;;5097335;28;20031;-68
2024/02/28 09:58:57;;;;;;;1.42;1.42;;;;;;;;;;5100747;28;20059;-68
2024/02/28 10:01:24;;;;;;;1.50;1.40;;;;;;;;;;5092850;28;20318;-68
2024/02/28 10:03:52;;;;;;;1.20;1.20;;;;;;;;;;5103099;28;20631;-68
2024/02/28 10:06:19;;;;;;;1.92;1.67;;;;;;;;;;5096520;28;20028;-68
2024/02/28 10:08:48;;;;;;;1.27;1.27;;;;;;;;;;5099267;28;20027;-68
2024/02/28 10:11:24;;;;;;;1.35;1.25;;;;;;;;;;5094714;28;20024;-68
2024/02/28 10:13:50;;;;;;;2.83;1.63;;;;;;;;;;5101959;27;20107;-68
2024/02/28 10:16:17;;;;;;;1.60;1.50;;;;;;;;;;5100454;27;20031;-68
2024/02/28 10:18:43;;;;;;;2.20;2.00;;;;;;;;;;5098538;28;20051;-67
2024/02/28 10:21:12;;;;;;;1.50;1.40;;;;;;;;;;5098708;28;20410;-68
2024/02/28 10:23:38;;;;;;;2.15;1.90;;;;;;;;;;5078449;28;20032;-68
2024/02/28 10:26:04;;;;;;;1.80;1.70;;;;;;;;;;5100329;27;20020;-68
2024/02/28 10:28:31;;;;;;;3.42;2.88;;;;;;;;;;5083330;28;20123;-68
2024/02/28 10:30:57;;;;;;;6.88;3.50;;;;;;;;;;5093163;27;20071;-68
2024/02/28 10:33:28;;;;;;;5.22;3.30;;;;;;;;;;5090757;28;20545;-68
2024/02/28 10:35:55;;;;;;;5.85;3.03;;;;;;;;;;5109433;27;20105;-68
2024/02/28 10:38:21;;;;;;;3.13;2.28;;;;;;;;;;5097186;28;20048;-70
2024/02/28 10:40:48;;;;;;;4.63;1.50;;;;;;;;;;5084035;28;20111;-68
2024/02/28 10:43:17;;;;;;;1.80;1.70;;;;;;;;;;5094232;28;20055;-68
2024/02/28 10:45:43;;;;;;;1.52;1.42;;;;;;;;;;5099765;27;20031;-70
2024/02/28 10:48:10;;;;;;;1.50;1.40;;;;;;;;;;5097380;28;20043;-68
2024/02/28 10:50:37;;;;;;;1.55;1.45;;;;;;;;;;5100589;28;20028;-68
2024/02/28 10:53:05;;;;;;;1.50;1.40;;;;;;;;;;5100396;28;20030;-70
2024/02/28 10:55:37;;;;;;;1.50;1.40;;;;;;;;;;5104257;27;20058;-68
2024/02/28 10:58:04;;;;;;;2.13;1.92;;;;;;;;;;5094315;28;20071;-68
2024/02/28 11:00:31;;;;;;;2.00;1.90;;;;;;;;;;5096353;28;20088;-68
2024/02/28 11:02:58;;;;;;;1.33;1.33;;;;;;;;;;5093891;28;20035;-67
2024/02/28 11:05:24;;;;;;;2.08;1.60;;;;;;;;;;5088756;28;20032;-68
2024/02/28 11:07:54;;;;;;;2.33;1.52;;;;;;;;;;5088480;28;20134;-70
2024/02/28 11:10:24;;;;;;;1.40;1.35;;;;;;;;;;5102416;28;20056;-68
2024/02/28 11:12:55;;;;;;;1.50;1.40;;;;;;;;;;5101869;28;20028;-67
2024/02/28 11:15:28;;;;;;;2.05;1.50;;;;;;;;;;5091669;28;20217;-68
2024/02/28 11:17:54;;;;;;;1.50;1.40;;;;;;;;;;5095823;28;20031;-68
2024/02/28 11:20:22;;;;;;;1.70;1.60;;;;;;;;;;5094598;28;20027;-67
2024/02/28 11:22:49;;;;;;;1.30;1.30;;;;;;;;;;5098559;28;20545;-69
2024/02/28 11:25:15;;;;;;;1.70;1.52;;;;;;;;;;5094100;28;20036;-68
2024/02/28 11:27:48;;;;;;;1.70;1.60;;;;;;;;;;5101068;28;20034;-68
2024/02/28 11:30:15;;;;;;;1.70;1.60;;;;;;;;;;5080003;28;20063;-69
2024/02/28 11:32:41;;;;;;;4.60;1.75;;;;;;;;;;5094132;28;20032;-67
2024/02/28 11:35:08;;;;;;;2.20;1.90;;;;;;;;;;5101069;28;20103;-68
2024/02/28 11:37:35;;;;;;;1.90;1.75;;;;;;;;;;5097337;28;20047;-68
2024/02/28 11:40:01;;;;;;;2.10;1.90;;;;;;;;;;5092973;28;20074;-67
2024/02/28 11:42:28;;;;;;;1.73;1.60;;;;;;;;;;5083018;28;20035;-68
2024/02/28 11:44:57;;;;;;;2.20;1.70;;;;;;;;;;5098261;28;20088;-68
2024/02/28 11:47:24;;;;;;;1.55;1.48;;;;;;;;;;5093081;28;20489;-68
2024/02/28 11:49:50;;;;;;;1.60;1.50;;;;;;;;;;5078569;28;20028;-68
2024/02/28 11:52:16;;;;;;;1.40;1.40;;;;;;;;;;5103952;27;20423;-68
2024/02/28 11:54:42;;;;;;;1.70;1.60;;;;;;;;;;5087496;28;20051;-67
2024/02/28 11:57:14;;;;;;;1.67;1.58;;;;;;;;;;5103722;28;20058;-68
2024/02/28 11:59:40;;;;;;;1.50;1.40;;;;;;;;;;5098805;27;20023;-68
2024/02/28 12:02:13;;;;;;;1.52;1.42;;;;;;;;;;5095800;27;20397;-68
2024/02/28 12:04:39;;;;;;;1.67;1.50;;;;;;;;;;5094378;27;20508;-69
2024/02/28 12:07:06;;;;;;;1.42;1.38;;;;;;;;;;5102339;28;20115;-68
2024/02/28 12:09:32;;;;;;;1.60;1.50;;;;;;;;;;5098410;28;20028;-68
2024/02/28 12:12:01;;;;;;;1.70;1.60;;;;;;;;;;5096072;28;20389;-68
2024/02/28 12:14:28;;;;;;;2.03;1.58;;;;;;;;;;5082598;28;20045;-68
2024/02/28 12:16:54;;;;;;;1.67;1.58;;;;;;;;;;5099554;27;20059;-68
2024/02/28 12:19:20;;;;;;;1.67;1.58;;;;;;;;;;5099148;28;20088;-68
2024/02/28 12:21:47;;;;;;;1.55;1.48;;;;;;;;;;5099827;28;20024;-68
2024/02/28 12:24:13;;;;;;;1.65;1.55;;;;;;;;;;5095207;28;20341;-68
2024/02/28 12:26:40;;;;;;;1.88;1.77;;;;;;;;;;5096916;28;20096;-68
2024/02/28 12:29:06;;;;;;;1.63;1.52;;;;;;;;;;5095574;27;20024;-68
2024/02/28 12:31:32;;;;;;;1.58;1.48;;;;;;;;;;5106873;27;20035;-69
2024/02/28 12:33:59;;;;;;;1.60;1.50;;;;;;;;;;5114898;27;20114;-67
2024/02/28 12:36:26;;;;;;;2.42;1.70;;;;;;;;;;5101445;28;20043;-68
2024/02/28 12:38:52;;;;;;;2.05;1.50;;;;;;;;;;5093681;28;20488;-68
2024/02/28 12:41:18;;;;;;;1.70;1.60;;;;;;;;;;5095841;28;20027;-68
2024/02/28 12:43:44;;;;;;;1.70;1.60;;;;;;;;;;5105130;28;20031;-67
2024/02/28 12:46:11;;;;;;;1.98;1.80;;;;;;;;;;5078828;28;20032;-69
2024/02/28 12:48:40;;;;;;;1.63;1.52;;;;;;;;;;5103290;28;20023;-68
2024/02/28 12:51:08;;;;;;;2.05;1.92;;;;;;;;;;5097525;28;20023;-68
2024/02/28 12:53:35;;;;;;;3.05;1.98;;;;;;;;;;5100321;28;20071;-69
2024/02/28 12:56:01;;;;;;;1.92;1.55;;;;;;;;;;5100738;27;20015;-67
2024/02/28 12:58:27;;;;;;;2.10;1.67;;;;;;;;;;5099122;28;20032;-68
2024/02/28 13:00:54;;;;;;;2.13;1.90;;;;;;;;;;5080397;28;20027;-68
2024/02/28 13:03:20;;;;;;;2.38;1.80;;;;;;;;;;5102711;28;20602;-66
2024/02/28 13:05:46;;;;;;;2.08;1.90;;;;;;;;;;5095626;28;20028;-68
2024/02/28 13:08:13;;;;;;;2.08;1.90;;;;;;;;;;5099219;28;20038;-68
2024/02/28 13:10:42;;;;;;;2.50;1.90;;;;;;;;;;5101325;28;20027;-68
2024/02/28 13:13:08;;;;;;;2.92;1.90;;;;;;;;;;5105565;27;20044;-68
2024/02/28 13:15:34;;;;;;;1.70;1.60;;;;;;;;;;5094603;28;20031;-70
2024/02/28 13:18:07;;;;;;;1.55;1.45;;;;;;;;;;5101481;27;20445;-68
2024/02/28 13:20:34;;;;;;;1.98;1.60;;;;;;;;;;5096341;27;20457;-68
2024/02/28 13:23:00;;;;;;;2.13;1.92;;;;;;;;;;5098994;27;20032;-69
2024/02/28 13:25:26;;;;;;;2.17;1.55;;;;;;;;;;5079102;27;20035;-69
2024/02/28 13:27:52;;;;;;;3.17;1.83;;;;;;;;;;5099924;27;20236;-69
2024/02/28 13:30:19;;;;;;;1.73;1.63;;;;;;;;;;5100000;28;20028;-70
2024/02/28 13:32:45;;;;;;;1.92;1.83;;;;;;;;;;5102454;28;20051;-64
2024/02/28 13:35:11;;;;;;;1.70;1.60;;;;;;;;;;5096117;28;20015;-69
2024/02/28 13:37:40;;;;;;;2.75;1.60;;;;;;;;;;5076682;28;20131;-69
2024/02/28 13:40:07;;;;;;;1.70;1.60;;;;;;;;;;5074460;28;20066;-69
2024/02/28 13:42:33;;;;;;;1.67;1.58;;;;;;;;;;5077804;28;20032;-69
2024/02/28 13:44:59;;;;;;;2.13;1.95;;;;;;;;;;5078170;28;20088;-69
2024/02/28 13:47:25;;;;;;;1.92;1.75;;;;;;;;;;5079532;28;20028;-68
2024/02/28 13:49:52;;;;;;;1.42;1.40;;;;;;;;;;5083729;28;20164;-69
2024/02/28 13:52:18;;;;;;;1.45;1.42;;;;;;;;;;5083125;28;20028;-68
2024/02/28 13:54:45;;;;;;;1.98;1.80;;;;;;;;;;5079762;28;20020;-69
2024/02/28 13:57:11;;;;;;;2.95;1.90;;;;;;;;;;5079480;28;20028;-69
2024/02/28 13:59:37;;;;;;;2.97;2.17;;;;;;;;;;5078811;28;20042;-72
2024/02/28 14:02:04;;;;;;;2.30;2.10;;;;;;;;;;5076607;28;20040;-68
2024/02/28 14:04:30;;;;;;;3.40;2.20;;;;;;;;;;5072785;28;20020;-68
2024/02/28 14:06:56;;;;;;;2.72;2.17;;;;;;;;;;5078630;28;20029;-70
2024/02/28 14:09:22;;;;;;;3.15;2.33;;;;;;;;;;5079351;28;20078;-68
2024/02/28 14:11:48;;;;;;;6.30;2.75;;;;;;;;;;5076383;28;20028;-69
2024/02/28 14:14:15;;;;;;;2.03;1.92;;;;;;;;;;5079309;28;20024;-68
2024/02/28 14:16:43;;;;;;;3.13;2.60;;;;;;;;;;5077276;28;20031;-67
2024/02/28 14:19:09;;;;;;;2.20;2.00;;;;;;;;;;5077083;28;20073;-68
2024/02/28 14:21:35;;;;;;;4.15;3.05;;;;;;;;;;5073674;28;20032;-68
2024/02/28 14:24:02;;;;;;;6.35;3.78;;;;;;;;;;5062760;28;20028;-64
2024/02/28 14:26:28;;;;;;;3.92;2.83;;;;;;;;;;5075112;28;20020;-64
2024/02/28 14:28:55;;;;;;;2.17;1.98;;;;;;;;;;5077493;28;20084;-64
2024/02/28 14:31:23;;;;;;;1.90;1.80;;;;;;;;;;5076328;28;20484;-68
2024/02/28 14:33:50;;;;;;;2.97;2.33;;;;;;;;;;5079391;28;20028;-66
2024/02/28 14:36:16;;;;;;;2.42;1.95;;;;;;;;;;5086009;28;20047;-68
2024/02/28 14:38:42;;;;;;;4.85;2.97;;;;;;;;;;5101378;28;20083;-66